Alvarado, Texas
Current Conditions -  °F | °C
As of 1:46 PM on Thursday 18 Dec 2014 (Local Time) from KFWS Reporting Station
Haze Haze  
Wind Chill: 46°   Ceiling: 600
Heat Index: 48°   Visibility: 5mi
Dew Point: 46°   Wind: 5mph
Humidity: 93%   Direction: 40°NE
Pressure: 30.12"   Gusts: NA
Location:  32.41°N, 97.21°W
Report Text: KFWS 181946Z 04004KT 5SM BR OVC006 09/08 A3012
Loading
Personal Weather Stations






























Interactive Weather Map New forecast layout! Learn more

10-Day Weather Forecast

Advertisements
Track Severe Weather on mobile